Time;durP1;ratioP1;P1;durP2;ratioP2;P2;SDS_P1;SDS_P2;PMS_P1;PMS_P2;Temp;Humidity;BMP_temperature;BMP_pressure;BME280_temperature;BME280_humidity;BME280_pressure;Samples;Min_cycle;Max_cycle;Signal;HPM_P1;HPM_P2
2021/04/26 00:06:45;;;;;;;18.10;5.95;;;;;;;9.60;46.92;101392.84;5034870;28;20053;-70
2021/04/26 00:09:18;;;;;;;16.17;6.40;;;;;;;9.57;46.92;101385.16;5034585;28;20060;-70
2021/04/26 00:11:46;;;;;;;17.10;5.55;;;;;;;9.74;46.30;101374.56;5053116;28;20048;-70
2021/04/26 00:14:13;;;;;;;12.02;6.30;;;;;;;9.72;46.58;101378.69;5053489;28;20052;-69
2021/04/26 00:16:40;;;;;;;17.50;6.40;;;;;;;9.75;46.62;101378.94;5052946;28;20056;-70
2021/04/26 00:19:07;;;;;;;18.20;6.40;;;;;;;9.77;46.55;101371.22;5052635;28;20563;-69
2021/04/26 00:21:33;;;;;;;12.50;6.40;;;;;;;9.71;46.77;101377.06;5052896;28;20369;-71
2021/04/26 00:24:00;;;;;;;14.40;6.30;;;;;;;9.76;46.70;101368.75;5034546;28;20132;-70
2021/04/26 00:26:37;;;;;;;16.83;6.15;;;;;;;9.82;47.16;101364.81;5034897;28;20445;-71
2021/04/26 00:29:08;;;;;;;13.25;6.25;;;;;;;9.94;46.30;101360.56;5051642;28;20049;-70
2021/04/26 00:31:38;;;;;;;14.90;6.45;;;;;;;9.74;46.67;101348.97;5034791;28;20408;-71
2021/04/26 00:34:06;;;;;;;13.00;6.13;;;;;;;9.74;46.89;101351.72;5051589;28;20389;-71
2021/04/26 00:36:34;;;;;;;12.15;6.38;;;;;;;9.86;46.38;101350.19;5052642;28;20476;-70
2021/04/26 00:39:02;;;;;;;15.88;6.63;;;;;;;9.75;46.46;101348.66;5001996;28;20052;-69
2021/04/26 00:41:30;;;;;;;13.95;7.00;;;;;;;9.62;47.01;101340.31;5051748;28;20064;-70
2021/04/26 00:43:58;;;;;;;16.88;6.57;;;;;;;9.68;46.88;101339.94;5002577;28;20056;-71
2021/04/26 00:46:25;;;;;;;13.45;6.40;;;;;;;9.76;46.62;101333.78;5052680;28;20071;-71
2021/04/26 00:48:55;;;;;;;15.45;6.72;;;;;;;9.44;47.20;101343.78;5052701;28;20045;-69
2021/04/26 00:51:22;;;;;;;13.55;7.00;;;;;;;9.31;47.64;101322.50;5017097;28;20075;-70
2021/04/26 00:53:49;;;;;;;11.93;6.05;;;;;;;9.35;47.81;101335.34;5051610;28;20053;-70
2021/04/26 00:56:20;;;;;;;15.95;6.68;;;;;;;9.33;48.25;101334.03;5017286;28;20056;-71
2021/04/26 00:58:47;;;;;;;18.17;6.57;;;;;;;9.39;47.72;101327.34;5034179;28;20048;-69
2021/04/26 01:01:22;;;;;;;18.15;7.18;;;;;;;9.32;47.57;101340.63;5034478;28;20052;-71
2021/04/26 01:03:51;;;;;;;19.73;7.30;;;;;;;9.31;47.84;101317.00;5017695;28;20052;-71
2021/04/26 01:06:18;;;;;;;17.30;6.70;;;;;;;9.16;48.33;101328.13;5051495;28;20049;-69
2021/04/26 01:08:45;;;;;;;12.18;6.70;;;;;;;9.30;48.34;101315.34;5052006;28;20052;-70
2021/04/26 01:11:35;;;;;;;16.92;7.93;;;;;;;9.29;48.23;101316.47;5052072;28;20077;-69
2021/04/26 01:14:25;;;;;;;14.63;6.95;;;;;;;9.30;47.98;101309.84;5018016;28;20053;-69
2021/04/26 01:17:06;;;;;;;13.90;6.97;;;;;;;9.08;48.96;101316.63;5050797;28;20486;-71
2021/04/26 01:20:10;;;;;;;20.13;7.53;;;;;;;9.04;48.98;101317.50;5051092;28;20044;-68
2021/04/26 01:23:15;;;;;;;16.13;7.47;;;;;;;9.08;48.73;101318.59;5034903;28;20049;-70
2021/04/26 01:25:51;;;;;;;11.68;6.75;;;;;;;9.08;49.14;101313.88;5034773;28;20468;-71
2021/04/26 01:28:38;;;;;;;11.48;7.22;;;;;;;9.07;48.76;101326.00;5017436;28;20045;-70
2021/04/26 01:31:09;;;;;;;15.80;7.10;;;;;;;9.09;49.00;101325.72;5033918;28;20124;-67
2021/04/26 01:33:46;;;;;;;16.70;7.13;;;;;;;8.88;49.81;101313.25;5033662;28;20073;-69
2021/04/26 01:36:18;;;;;;;14.05;7.18;;;;;;;8.86;49.73;101310.81;5000858;28;20056;-69
2021/04/26 01:38:55;;;;;;;17.13;7.10;;;;;;;8.84;50.21;101307.53;5034553;28;20056;-69
2021/04/26 01:41:24;;;;;;;21.70;7.47;;;;;;;8.84;50.38;101310.25;5033896;28;20429;-71
2021/04/26 01:43:53;;;;;;;13.25;7.10;;;;;;;9.00;49.69;101306.28;5052479;28;20052;-68
2021/04/26 01:46:30;;;;;;;14.73;7.40;;;;;;;9.17;49.95;101319.56;5034155;28;20045;-69
2021/04/26 01:49:32;;;;;;;16.55;7.25;;;;;;;9.42;50.40;101316.59;5051726;28;20056;-72
2021/04/26 01:52:01;;;;;;;20.17;6.97;;;;;;;9.05;49.53;101321.88;5033992;28;20037;-70
2021/04/26 01:54:32;;;;;;;15.02;7.55;;;;;;;8.97;50.06;101325.28;5051298;28;20392;-70
2021/04/26 01:57:00;;;;;;;14.57;7.45;;;;;;;8.95;50.50;101322.00;5033536;28;20041;-70
2021/04/26 01:59:32;;;;;;;17.17;6.70;;;;;;;9.15;50.12;101326.50;5033376;28;20416;-69
2021/04/26 02:06:47;;;;;;;17.52;7.82;;;;;;;8.71;51.12;101308.19;5033455;28;20045;-69
2021/04/26 02:09:39;;;;;;;17.50;7.85;;;;;;;8.55;51.09;101314.91;5040066;28;20469;-69
2021/04/26 02:12:11;;;;;;;14.52;8.15;;;;;;;8.70;51.00;101312.03;5054232;28;20041;-69
2021/04/26 02:14:42;;;;;;;13.85;6.88;;;;;;;8.78;50.65;101311.44;5053902;28;20408;-70
2021/04/26 02:21:45;;;;;;;18.55;7.25;;;;;;;8.84;50.57;101304.78;5036503;28;20378;-71
2021/04/26 02:24:13;;;;;;;22.77;8.05;;;;;;;8.53;51.15;101300.63;5055085;28;20110;-69
2021/04/26 02:26:40;;;;;;;17.75;7.85;;;;;;;8.63;51.68;101302.50;5037049;28;20048;-69
2021/04/26 02:29:09;;;;;;;13.70;7.30;;;;;;;8.57;51.48;101293.47;5052540;28;20060;-71
2021/04/26 02:31:38;;;;;;;21.00;8.00;;;;;;;8.69;51.00;101298.59;5019900;28;20053;-71
2021/04/26 02:34:24;;;;;;;15.77;7.88;;;;;;;8.76;50.48;101302.66;5036790;28;20480;-70
2021/04/26 02:37:02;;;;;;;16.95;7.55;;;;;;;8.57;51.13;101295.38;5036550;28;20499;-70
2021/04/26 02:39:31;;;;;;;16.77;7.35;;;;;;;8.45;51.70;101298.50;5036665;28;20044;-71
2021/04/26 02:41:59;;;;;;;15.93;8.45;;;;;;;8.55;51.35;101297.59;5036496;28;20068;-71
2021/04/26 02:44:29;;;;;;;17.50;7.88;;;;;;;8.68;50.91;101291.47;5020136;28;20056;-69
2021/04/26 02:51:14;;;;;;;14.75;6.97;;;;;;;8.66;51.16;101289.00;5054361;28;20041;-71
2021/04/26 02:53:42;;;;;;;17.17;6.78;;;;;;;8.53;51.51;101292.38;5036659;28;20057;-70
2021/04/26 02:56:22;;;;;;;15.30;7.47;;;;;;;8.25;52.34;101295.88;5020044;28;20053;-71
2021/04/26 02:58:53;;;;;;;17.45;8.02;;;;;;;8.21;52.61;101289.28;5037059;28;20056;-69
2021/04/26 03:01:27;;;;;;;16.77;7.30;;;;;;;8.43;52.27;101286.16;5020726;28;20049;-69
2021/04/26 03:08:22;;;;;;;16.20;7.93;;;;;;;7.94;52.80;101291.63;5053381;28;20499;-70
2021/04/26 03:10:49;;;;;;;17.83;8.35;;;;;;;7.89;53.37;101281.53;5036539;28;20507;-70
2021/04/26 03:13:16;;;;;;;19.73;8.10;;;;;;;8.10;52.84;101286.88;5053000;28;20037;-71
2021/04/26 03:15:43;;;;;;;16.23;8.20;;;;;;;8.18;53.58;101278.03;5036273;28;20048;-70
2021/04/26 03:22:51;;;;;;;;;;;;;;;7.84;54.23;101277.97;5054224;28;20037;-68
2021/04/26 03:25:20;;;;;;;19.23;8.27;;;;;;;7.93;53.69;101276.28;5036103;28;19921;-68
2021/04/26 03:27:48;;;;;;;19.90;8.82;;;;;;;7.65;54.23;101264.06;5019597;28;20500;-70
2021/04/26 03:30:17;;;;;;;15.68;7.75;;;;;;;7.85;53.67;101261.22;5035867;28;20072;-69
2021/04/26 03:32:58;;;;;;;15.45;8.13;;;;;;;7.90;53.51;101260.38;5036309;28;20057;-69
2021/04/26 03:35:25;;;;;;;16.08;8.48;;;;;;;7.93;53.85;101260.63;5035165;28;20049;-69
2021/04/26 03:37:54;;;;;;;19.30;9.00;;;;;;;7.88;53.51;101257.91;5036377;28;20045;-69
2021/04/26 03:40:25;;;;;;;16.48;7.82;;;;;;;8.14;53.08;101260.53;5020157;28;20415;-69
2021/04/26 03:42:55;;;;;;;19.83;8.10;;;;;;;8.11;53.01;101261.91;5035942;28;20500;-69
2021/04/26 03:45:25;;;;;;;17.45;8.18;;;;;;;7.85;53.82;101257.66;5019599;28;20049;-69
2021/04/26 03:48:10;;;;;;;22.45;9.02;;;;;;;7.51;54.78;101252.09;5053347;28;20040;-70
2021/04/26 03:50:59;;;;;;;16.70;8.60;;;;;;;7.57;54.38;101244.63;5034932;28;20052;-70
2021/04/26 03:53:45;;;;;;;17.95;8.80;;;;;;;7.78;54.43;101236.03;5035371;28;20056;-69
2021/04/26 03:56:25;;;;;;;17.77;8.25;;;;;;;7.58;54.95;101243.53;5036982;28;20052;-69
2021/04/26 03:58:52;;;;;;;19.45;8.20;;;;;;;7.35;55.14;101230.47;5036913;28;20057;-69
2021/04/26 04:01:19;;;;;;;18.33;8.40;;;;;;;7.41;55.14;101238.38;5020438;28;20048;-69
2021/04/26 04:03:47;;;;;;;21.50;8.35;;;;;;;7.33;55.22;101229.94;5019026;28;20063;-69
2021/04/26 04:06:16;;;;;;;22.63;9.45;;;;;;;7.26;55.42;101237.63;5035241;28;20045;-69
2021/04/26 04:09:03;;;;;;;22.60;8.57;;;;;;;7.33;55.49;101232.66;5024913;28;20057;-67
2021/04/26 04:11:53;;;;;;;17.40;8.23;;;;;;;7.22;55.63;101223.66;5038767;28;20107;-69
2021/04/26 04:14:40;;;;;;;19.27;8.50;;;;;;;7.45;55.51;101219.47;5052480;28;20075;-70
2021/04/26 04:17:09;;;;;;;21.45;9.10;;;;;;;7.58;54.95;101225.16;5034608;28;20053;-69
2021/04/26 04:19:37;;;;;;;17.83;8.55;;;;;;;7.26;55.65;101224.75;5035012;28;20487;-68
2021/04/26 04:22:09;;;;;;;16.58;8.70;;;;;;;7.27;55.80;101215.41;5035219;28;20056;-69
2021/04/26 04:24:38;;;;;;;16.15;8.73;;;;;;;7.34;55.52;101224.16;5034939;28;20393;-70
2021/04/26 04:27:05;;;;;;;18.35;8.52;;;;;;;7.52;55.37;101212.59;5035675;28;20045;-70
2021/04/26 04:29:32;;;;;;;22.70;8.70;;;;;;;7.49;54.65;101226.03;5051625;28;20060;-69
2021/04/26 04:32:12;;;;;;;18.00;9.18;;;;;;;7.63;54.40;101211.44;5034674;28;20056;-69
2021/04/26 04:35:08;;;;;;;19.05;9.00;;;;;;;7.58;54.84;101216.13;5051264;28;20049;-67
2021/04/26 04:37:54;;;;;;;17.35;8.52;;;;;;;7.59;54.68;101215.03;5052337;28;20069;-69
2021/04/26 04:40:40;;;;;;;18.17;8.48;;;;;;;7.53;54.53;101222.44;5051659;28;20052;-68
2021/04/26 04:43:17;;;;;;;19.17;8.48;;;;;;;7.59;55.00;101220.50;5034784;28;20071;-68
2021/04/26 04:45:55;;;;;;;16.45;8.73;;;;;;;7.27;55.37;101225.59;5035754;28;20049;-70
2021/04/26 04:52:52;;;;;;;;;;;;;;;7.16;56.05;101224.78;5034116;28;20399;-69
2021/04/26 04:55:19;;;;;;;19.88;8.50;;;;;;;7.21;56.05;101223.94;5033884;28;19935;-69
2021/04/26 04:57:46;;;;;;;18.77;8.23;;;;;;;7.46;55.90;101212.91;5033890;28;20052;-69
2021/04/26 05:00:14;;;;;;;19.80;9.15;;;;;;;7.75;54.85;101230.28;5034665;28;20053;-69
2021/04/26 05:02:59;;;;;;;17.63;8.57;;;;;;;7.12;56.22;101229.19;5052083;28;20475;-68
2021/04/26 05:05:59;;;;;;;18.55;9.18;;;;;;;7.02;56.66;101223.72;4990228;28;20070;-71
2021/04/26 05:08:44;;;;;;;21.25;8.70;;;;;;;7.20;55.91;101228.59;4990331;28;20054;-69
2021/04/26 05:11:30;;;;;;;15.75;8.77;;;;;;;7.30;55.94;101228.59;4990600;28;20374;-69
2021/04/26 05:14:15;;;;;;;18.10;9.25;;;;;;;6.93;56.72;101241.00;4990005;28;20047;-68
2021/04/26 05:16:42;;;;;;;23.58;9.32;;;;;;;6.85;57.01;101234.19;4990372;28;20053;-69
2021/04/26 05:23:39;;;;;;;17.90;9.13;;;;;;;6.95;56.84;101233.31;4990005;28;20054;-70
2021/04/26 05:26:06;;;;;;;22.92;9.00;;;;;;;6.96;56.82;101238.53;4973575;28;20127;-69
2021/04/26 05:28:42;;;;;;;16.20;9.13;;;;;;;6.79;57.35;101244.31;4974401;28;20059;-68
2021/04/26 05:31:13;;;;;;;21.38;9.35;;;;;;;6.92;56.89;101242.94;4975280;28;20397;-70
2021/04/26 05:38:20;;;;;;;16.65;8.80;;;;;;;7.02;56.45;101228.38;4992438;28;20454;-70
2021/04/26 05:40:49;;;;;;;16.58;9.30;;;;;;;7.01;56.47;101240.44;4984388;28;20074;-69
2021/04/26 05:43:18;;;;;;;16.63;9.13;;;;;;;7.00;56.68;101227.84;5040430;28;20388;-70
2021/04/26 05:45:48;;;;;;;17.70;8.90;;;;;;;7.08;56.24;101232.75;5040347;28;20056;-69
2021/04/26 05:48:21;;;;;;;15.65;8.38;;;;;;;7.18;56.21;101221.78;5039026;28;20060;-71
2021/04/26 05:55:16;;;;;;;18.77;8.45;;;;;;;6.94;56.24;101223.47;5057335;28;20056;-69
2021/04/26 05:57:43;;;;;;;21.02;9.13;;;;;;;7.08;56.73;101236.31;5055433;28;20053;-69
2021/04/26 06:00:11;;;;;;;20.70;8.40;;;;;;;7.18;55.60;101232.72;5037198;28;20056;-71
2021/04/26 06:02:41;;;;;;;23.58;8.70;;;;;;;7.27;55.83;101242.03;5055592;28;20049;-70
2021/04/26 06:09:31;;;;;;;20.42;9.65;;;;;;;7.53;55.44;101238.88;5036771;28;20085;-70
2021/04/26 06:11:58;;;;;;;14.52;8.52;;;;;;;7.35;55.51;101230.47;5037734;28;20044;-71
2021/04/26 06:14:26;;;;;;;21.42;9.43;;;;;;;7.46;55.21;101230.16;5055361;28;20048;-71
2021/04/26 06:16:53;;;;;;;21.00;8.98;;;;;;;7.48;54.78;101235.38;5055542;28;20052;-71
2021/04/26 06:19:20;;;;;;;21.40;9.07;;;;;;;7.26;55.32;101232.97;5054991;28;20508;-71
2021/04/26 06:21:48;;;;;;;17.67;9.38;;;;;;;7.22;55.42;101231.88;5055083;28;20047;-70
2021/04/26 06:24:15;;;;;;;19.55;9.15;;;;;;;7.27;56.06;101242.03;5054646;28;20056;-73
2021/04/26 06:26:42;;;;;;;21.52;10.05;;;;;;;7.27;55.61;101240.06;5037242;28;20060;-73
2021/04/26 06:29:09;;;;;;;16.85;8.25;;;;;;;7.33;54.92;101232.66;5036766;28;20033;-72
2021/04/26 06:31:36;;;;;;;21.15;9.48;;;;;;;7.37;55.31;101225.53;5036962;28;20049;-72
2021/04/26 06:34:04;;;;;;;22.95;8.68;;;;;;;7.46;54.68;101229.34;5054825;28;20056;-71
2021/04/26 06:40:54;;;;;;;22.70;9.90;;;;;;;7.57;54.54;101225.44;5054846;28;20048;-72
2021/04/26 06:43:21;;;;;;;20.17;8.68;;;;;;;7.53;54.28;101218.91;5036504;28;20041;-73
2021/04/26 06:45:49;;;;;;;20.48;8.80;;;;;;;7.66;53.77;101223.75;5054733;28;20041;-73
2021/04/26 06:48:17;;;;;;;22.08;10.35;;;;;;;7.56;54.31;101221.06;5053588;28;20148;-68
2021/04/26 06:50:46;;;;;;;21.17;9.75;;;;;;;7.74;53.72;101212.22;5053129;28;20056;-68
2021/04/26 06:53:13;;;;;;;18.08;9.55;;;;;;;7.84;53.31;101202.00;5054952;28;20049;-73
2021/04/26 06:55:49;;;;;;;23.08;9.40;;;;;;;7.69;53.62;101212.22;5053795;28;20044;-73
2021/04/26 06:58:16;;;;;;;29.33;9.43;;;;;;;7.75;53.04;101211.94;5053858;28;20060;-69
2021/04/26 07:00:43;;;;;;;22.98;9.07;;;;;;;7.82;52.82;101217.94;5036309;28;20049;-72
2021/04/26 07:03:11;;;;;;;17.38;9.38;;;;;;;7.53;53.15;101207.94;5054300;28;20044;-70
2021/04/26 07:05:38;;;;;;;22.20;9.10;;;;;;;7.54;53.76;101202.16;5037796;28;20040;-72
2021/04/26 07:08:05;;;;;;;20.90;9.43;;;;;;;7.92;52.96;101197.84;5036579;28;20064;-71
2021/04/26 07:10:33;;;;;;;22.02;8.65;;;;;;;7.99;52.58;101192.84;5053850;28;20492;-69
2021/04/26 07:13:01;;;;;;;18.48;8.80;;;;;;;8.01;52.21;101190.66;5054083;28;20052;-70
2021/04/26 07:15:28;;;;;;;20.50;8.95;;;;;;;8.06;52.23;101204.31;5054369;28;20056;-70
2021/04/26 07:17:55;;;;;;;16.35;8.27;;;;;;;8.05;52.10;101199.94;5036163;28;20396;-71
2021/04/26 07:20:22;;;;;;;23.20;10.32;;;;;;;8.04;52.33;101192.81;5053536;28;20048;-72
2021/04/26 07:22:49;;;;;;;16.10;8.23;;;;;;;8.19;51.58;101187.22;5036141;28;20048;-72
2021/04/26 07:25:16;;;;;;;13.95;8.23;;;;;;;8.38;50.84;101190.13;5053110;28;20057;-72
2021/04/26 07:27:43;;;;;;;15.73;8.30;;;;;;;8.41;50.60;101184.88;5053337;28;20481;-72
2021/04/26 07:30:12;;;;;;;21.55;8.07;;;;;;;8.35;50.84;101188.75;5054017;28;20052;-69
2021/04/26 07:32:41;;;;;;;15.93;7.63;;;;;;;8.55;50.87;101180.34;5053210;28;20213;-70
2021/04/26 07:35:11;;;;;;;14.77;7.43;;;;;;;8.69;49.79;101178.56;5053095;28;20065;-70
2021/04/26 07:37:38;;;;;;;;;;;;;;;8.69;49.83;101178.56;5037039;28;20068;-71
2021/04/26 07:40:08;;;;;;;32.38;9.88;;;;;;;8.75;49.74;101188.38;5053861;28;19920;-74
2021/04/26 07:42:35;;;;;;;22.42;9.10;;;;;;;9.03;49.02;101162.81;5053372;28;20061;-71
2021/04/26 07:45:04;;;;;;;19.35;8.48;;;;;;;9.01;48.66;101164.25;5053990;28;20041;-72
2021/04/26 07:47:31;;;;;;;16.38;8.15;;;;;;;9.18;48.05;101163.75;5054053;28;20052;-72
2021/04/26 07:49:59;;;;;;;20.88;7.70;;;;;;;9.40;47.69;101169.50;5052510;28;20049;-72
2021/04/26 07:56:54;;;;;;;15.77;7.50;;;;;;;9.07;47.91;101168.53;5052893;28;20040;-72
2021/04/26 07:59:21;;;;;;;16.98;7.55;;;;;;;9.09;47.56;101161.66;5035337;28;20049;-72
2021/04/26 08:01:48;;;;;;;15.15;7.60;;;;;;;9.24;47.23;101168.09;5052551;28;20053;-72
2021/04/26 08:04:16;;;;;;;27.50;7.50;;;;;;;9.43;47.05;101168.94;5052710;28;20385;-73
2021/04/26 08:11:05;;;;;;;17.17;7.45;;;;;;;9.74;46.48;101160.00;5052660;28;20125;-72
2021/04/26 08:13:32;;;;;;;19.80;7.90;;;;;;;9.86;46.12;101148.53;5034899;28;20061;-69
2021/04/26 08:15:59;;;;;;;17.55;7.50;;;;;;;9.81;45.80;101145.84;5052331;28;20049;-71
2021/04/26 08:18:26;;;;;;;21.90;7.10;;;;;;;10.03;46.35;101146.06;5052157;28;20147;-68
2021/04/26 08:20:54;;;;;;;14.63;7.53;;;;;;;10.42;45.64;101146.53;5050672;28;20056;-71
2021/04/26 08:23:21;;;;;;;16.33;7.30;;;;;;;10.54;45.04;101135.03;5018109;28;20056;-70
2021/04/26 08:25:48;;;;;;;16.88;7.22;;;;;;;10.76;44.51;101135.16;5052354;28;20056;-70
2021/04/26 08:28:16;;;;;;;17.30;7.55;;;;;;;10.88;43.76;101139.06;5052477;28;20033;-71
2021/04/26 08:30:47;;;;;;;20.70;6.45;;;;;;;10.79;43.58;101142.84;5051660;28;20185;-71
2021/04/26 08:33:15;;;;;;;15.13;6.38;;;;;;;10.69;44.18;101138.31;5052066;28;20057;-71
2021/04/26 08:35:42;;;;;;;17.38;7.00;;;;;;;10.93;44.00;101135.41;5018325;28;20045;-69
2021/04/26 08:42:38;;;;;;;16.55;6.90;;;;;;;10.27;44.11;101135.78;5034054;28;20045;-69
2021/04/26 08:45:07;;;;;;;15.38;6.57;;;;;;;10.38;44.03;101130.91;5052072;28;20051;-68
2021/04/26 08:47:38;;;;;;;15.10;6.68;;;;;;;10.57;44.09;101137.19;5034532;28;20045;-70
2021/04/26 08:50:07;;;;;;;14.15;6.82;;;;;;;11.02;44.46;101123.34;5051841;28;20045;-68
2021/04/26 08:57:01;;;;;;;16.25;7.38;;;;;;;11.37;42.10;101124.53;5051449;28;20063;-68
2021/04/26 08:59:29;;;;;;;18.58;8.38;;;;;;;11.22;42.89;101120.19;5033584;28;20041;-69
2021/04/26 09:02:01;;;;;;;16.58;7.20;;;;;;;11.19;42.86;101125.50;5050191;28;20049;-72
2021/04/26 09:04:32;;;;;;;17.30;7.03;;;;;;;10.96;43.09;101124.59;5051661;28;20045;-70
2021/04/26 09:11:24;;;;;;;20.60;7.03;;;;;;;11.11;43.09;101107.72;5051449;28;20041;-68
2021/04/26 09:13:52;;;;;;;13.98;6.80;;;;;;;11.18;42.59;101108.13;5033708;28;20053;-68
2021/04/26 09:16:25;;;;;;;13.73;6.30;;;;;;;10.92;42.61;101100.69;5016765;28;20045;-71
2021/04/26 09:18:54;;;;;;;12.98;6.75;;;;;;;11.02;42.69;101105.97;5051268;28;20056;-67
2021/04/26 09:25:41;;;;;;;17.80;6.50;;;;;;;11.45;42.21;101089.91;5050849;28;20048;-69
2021/04/26 09:28:14;;;;;;;19.67;6.78;;;;;;;11.46;42.25;101106.16;5051170;28;20053;-69
2021/04/26 09:30:48;;;;;;;15.07;6.10;;;;;;;11.46;41.86;101095.09;5050480;28;20044;-71
2021/04/26 09:33:37;;;;;;;16.27;6.25;;;;;;;11.46;41.88;101089.59;5049302;28;20400;-68
2021/04/26 09:36:15;;;;;;;14.65;5.95;;;;;;;11.78;41.58;101074.81;5051139;28;20401;-69
2021/04/26 09:43:05;;;;;;;13.27;6.47;;;;;;;11.89;40.69;101087.25;5050894;28;20057;-69
2021/04/26 09:45:37;;;;;;;13.40;5.72;;;;;;;11.81;40.98;101068.66;5051012;28;20045;-69
2021/04/26 09:48:07;;;;;;;14.80;6.13;;;;;;;11.99;40.51;101082.28;5032352;28;20067;-69
2021/04/26 09:51:02;;;;;;;15.32;6.10;;;;;;;12.14;40.91;101059.81;5050323;28;20045;-69
2021/04/26 09:53:52;;;;;;;14.50;5.80;;;;;;;12.29;39.86;101058.63;5050179;28;20413;-70
2021/04/26 09:56:24;;;;;;;16.17;5.20;;;;;;;12.37;39.82;101061.41;5015873;28;20065;-71
2021/04/26 09:58:55;;;;;;;17.98;5.45;;;;;;;12.61;38.65;101049.16;5050347;28;20049;-69
2021/04/26 10:01:26;;;;;;;16.92;5.72;;;;;;;12.72;38.77;101059.63;5033154;28;20048;-71
2021/04/26 10:03:54;;;;;;;13.35;4.97;;;;;;;12.64;38.23;101048.53;5048870;28;20053;-69
2021/04/26 10:06:26;;;;;;;20.10;8.35;;;;;;;12.53;38.18;101050.75;5050994;28;20407;-68
2021/04/26 10:08:58;;;;;;;11.98;5.43;;;;;;;12.59;38.77;101052.25;5016957;28;20056;-70
2021/04/26 10:11:30;;;;;;;14.48;4.88;;;;;;;12.82;38.73;101039.16;5032719;28;20048;-69
2021/04/26 10:14:06;;;;;;;17.92;5.07;;;;;;;13.03;38.05;101043.81;5050010;28;20060;-68
2021/04/26 10:16:58;;;;;;;17.40;5.43;;;;;;;12.86;37.84;101035.44;5049106;28;20121;-67
2021/04/26 10:19:29;;;;;;;11.63;5.22;;;;;;;12.81;37.82;101032.00;5032566;28;20052;-70
2021/04/26 10:21:59;;;;;;;22.48;5.80;;;;;;;13.00;37.59;101047.19;5033653;28;20048;-70
2021/04/26 10:24:31;;;;;;;14.50;5.30;;;;;;;12.99;37.71;101028.97;5033493;28;20041;-68
2021/04/26 10:27:08;;;;;;;13.00;4.82;;;;;;;13.14;37.37;101013.91;5050155;28;20047;-68
2021/04/26 10:29:40;;;;;;;9.25;4.60;;;;;;;13.29;36.93;101018.94;5051857;28;20514;-67
2021/04/26 10:32:10;;;;;;;12.40;5.13;;;;;;;13.38;37.01;101014.25;5054615;28;20049;-70
2021/04/26 10:34:57;;;;;;;13.57;4.65;;;;;;;13.38;36.28;101015.06;5053185;28;20040;-69
2021/04/26 10:37:28;;;;;;;17.70;5.70;;;;;;;13.46;36.73;101007.88;5054352;28;20060;-69
2021/04/26 10:39:58;;;;;;;10.68;4.88;;;;;;;13.65;36.11;101000.06;5036715;28;20056;-70
2021/04/26 10:42:47;;;;;;;12.15;4.18;;;;;;;13.72;34.79;101002.38;5053697;28;20056;-70
2021/04/26 10:45:21;;;;;;;15.75;4.00;;;;;;;13.80;34.88;100998.75;5036576;28;20051;-71
2021/04/26 10:47:55;;;;;;;12.55;4.30;;;;;;;13.87;34.58;100997.13;5053737;28;20049;-68
2021/04/26 10:50:23;;;;;;;12.07;4.20;;;;;;;13.88;34.51;100989.66;5036683;28;20171;-71
2021/04/26 10:57:42;;;;;;;10.23;4.38;;;;;;;14.06;34.08;100986.50;5034161;28;20050;-69
2021/04/26 11:00:25;;;;;;;15.55;4.40;;;;;;;13.96;33.91;100986.03;5033766;28;20525;-69
2021/04/26 11:03:19;;;;;;;12.82;4.10;;;;;;;13.77;35.66;100983.63;5033829;28;20476;-73
2021/04/26 11:05:52;;;;;;;8.73;3.90;;;;;;;13.99;33.87;100977.88;5033851;28;20061;-68
2021/04/26 11:12:47;;;;;;;14.30;4.40;;;;;;;14.08;33.47;100961.22;5034030;28;20049;-70
2021/04/26 11:15:19;;;;;;;14.70;4.15;;;;;;;14.15;32.60;100981.75;5015599;28;20071;-68
2021/04/26 11:17:49;;;;;;;10.23;4.18;;;;;;;14.06;32.61;100953.25;5033515;28;20049;-66
2021/04/26 11:20:20;;;;;;;8.82;3.65;;;;;;;14.10;32.80;100945.09;5033867;28;20049;-68
2021/04/26 11:22:48;;;;;;;11.02;4.32;;;;;;;14.28;33.09;100936.41;5015081;28;20133;-66
2021/04/26 11:29:47;;;;;;;14.15;4.57;;;;;;;14.26;32.79;100924.06;5034644;28;20060;-68
2021/04/26 11:32:16;;;;;;;11.95;4.47;;;;;;;14.27;33.00;100942.28;5015541;28;20056;-68
2021/04/26 11:34:50;;;;;;;12.15;4.50;;;;;;;14.28;32.53;100919.78;5016020;28;20061;-67
2021/04/26 11:37:21;;;;;;;12.75;4.18;;;;;;;14.55;32.32;100913.78;5034354;28;20493;-70
2021/04/26 11:44:16;;;;;;;11.82;4.05;;;;;;;14.83;32.15;100888.31;5033092;28;20481;-71
2021/04/26 11:46:43;;;;;;;11.30;3.97;;;;;;;14.81;32.36;100888.66;5033193;28;20057;-69
2021/04/26 11:49:14;;;;;;;11.10;4.30;;;;;;;14.83;31.88;100883.59;5015943;28;20045;-70
2021/04/26 11:51:43;;;;;;;9.75;3.63;;;;;;;14.80;31.36;100891.78;5033308;28;20045;-69
2021/04/26 11:58:41;;;;;;;8.88;3.58;;;;;;;14.93;30.33;100861.00;5015781;28;20049;-69
2021/04/26 12:01:18;;;;;;;8.93;4.03;;;;;;;14.92;30.87;100869.66;5033438;28;20068;-69
2021/04/26 12:03:54;;;;;;;8.35;3.90;;;;;;;15.01;31.22;100862.06;5016057;28;20060;-70
2021/04/26 12:06:27;;;;;;;14.50;4.20;;;;;;;15.13;30.43;100885.13;5033402;28;20476;-71
2021/04/26 12:13:18;;;;;;;10.70;3.97;;;;;;;15.34;30.67;100844.28;5032113;28;20053;-71
2021/04/26 12:15:47;;;;;;;16.30;4.07;;;;;;;15.55;30.53;100839.50;5015861;28;20500;-73
2021/04/26 12:18:19;;;;;;;8.53;3.80;;;;;;;15.54;30.36;100843.44;5033603;28;20065;-70
2021/04/26 12:20:46;;;;;;;10.10;3.45;;;;;;;15.50;29.78;100842.50;5032869;28;20052;-71
2021/04/26 12:23:19;;;;;;;9.93;3.40;;;;;;;15.36;29.31;100839.19;4982723;28;20079;-70
2021/04/26 12:30:23;;;;;;;15.32;3.08;;;;;;;16.01;27.99;100832.75;5032969;28;20060;-68
2021/04/26 12:32:52;;;;;;;9.55;3.70;;;;;;;16.14;27.70;100825.22;5031743;28;20053;-68
2021/04/26 12:35:24;;;;;;;9.30;3.22;;;;;;;16.09;27.49;100817.13;5031926;28;20053;-68
2021/04/26 12:37:59;;;;;;;8.35;3.50;;;;;;;16.13;28.30;100815.25;5031896;28;20068;-69
2021/04/26 12:45:14;;;;;;;9.68;3.67;;;;;;;16.12;28.30;100810.88;5032446;28;20044;-70
2021/04/26 12:47:54;;;;;;;8.63;3.63;;;;;;;16.00;28.61;100802.53;5031259;28;20050;-70
2021/04/26 12:50:35;;;;;;;19.75;4.10;;;;;;;16.23;28.42;100793.34;5031026;28;20053;-70
2021/04/26 12:53:18;;;;;;;11.00;3.60;;;;;;;16.36;27.19;100808.06;5013828;28;20053;-70
2021/04/26 12:56:10;;;;;;;10.77;3.40;;;;;;;16.34;26.79;100800.06;5032115;28;20417;-67
2021/04/26 12:58:42;;;;;;;8.75;3.28;;;;;;;16.46;26.75;100796.44;5029787;28;20064;-67
2021/04/26 13:01:13;;;;;;;8.57;2.97;;;;;;;16.54;26.64;100787.22;5029909;28;20049;-67
2021/04/26 13:03:49;;;;;;;6.57;3.05;;;;;;;16.57;27.34;100778.97;5030410;28;20049;-66
2021/04/26 13:06:20;;;;;;;10.60;3.60;;;;;;;16.59;27.64;100785.00;5031273;28;20050;-67
2021/04/26 13:08:55;;;;;;;7.72;3.20;;;;;;;16.59;26.96;100787.78;5031236;28;20042;-68
2021/04/26 13:11:28;;;;;;;10.13;3.13;;;;;;;16.23;27.26;100793.34;5013820;28;20053;-68
2021/04/26 13:13:58;;;;;;;6.03;3.00;;;;;;;16.07;27.77;100777.75;5013624;28;20050;-71
2021/04/26 13:16:28;;;;;;;9.35;2.90;;;;;;;16.26;27.30;100778.78;5014188;28;20049;-69
2021/04/26 13:19:01;;;;;;;10.02;3.03;;;;;;;16.42;27.34;100773.31;5031163;28;20539;-69
2021/04/26 13:21:37;;;;;;;7.90;2.80;;;;;;;16.44;27.55;100748.75;4998722;28;20060;-69
2021/04/26 13:24:22;;;;;;;8.85;3.15;;;;;;;16.44;26.68;100752.31;5031976;28;20075;-69
2021/04/26 13:27:09;;;;;;;12.02;3.60;;;;;;;16.40;27.15;100756.97;5032194;28;20050;-70
2021/04/26 13:29:41;;;;;;;6.55;2.50;;;;;;;16.62;26.13;100745.34;5014309;28;20045;-70
2021/04/26 13:32:09;;;;;;;7.78;3.20;;;;;;;16.64;26.20;100740.25;5014810;28;20053;-70
2021/04/26 13:34:41;;;;;;;7.70;2.80;;;;;;;16.82;26.38;100754.66;5031931;28;20072;-69
2021/04/26 13:37:08;;;;;;;8.88;3.00;;;;;;;16.63;27.35;100743.38;5031648;28;20045;-69
2021/04/26 13:39:35;;;;;;;7.57;2.97;;;;;;;16.52;27.12;100737.50;5031231;28;20041;-68
2021/04/26 13:42:05;;;;;;;8.70;2.70;;;;;;;16.56;27.43;100729.28;5013929;28;20523;-69
2021/04/26 13:44:33;;;;;;;9.60;2.88;;;;;;;16.74;26.69;100725.00;5013317;28;20057;-71
2021/04/26 13:47:00;;;;;;;7.53;2.97;;;;;;;17.03;26.69;100733.00;5031745;28;20045;-71
2021/04/26 13:49:27;;;;;;;10.02;3.03;;;;;;;17.02;26.38;100722.22;5014027;28;20064;-70